Aérodrome :
LOGIN :

S'inscrire | Disclaimer

   EN    FR    IT 

 










Légende :    VFR   VFR Marginal   IFR   IFR Intensif   IFR Très Intensif
Visi : 
Plafond : 
>= 8 km
>= 3000ft
5 à 8 km
1000 à 3000 ft
1500m à 5 km
500 à 1000 ft
800 à 1500m
200 à 500 ft
< 800m
< 200 ft
Symboles :   Orages  Brouillard  Fortes neiges  Fortes précipitations  Vent > 20 kt
SIGMETs :   Divers  Orages  Givrage  Turbulence  Onde Orograph.  Cendres Volcan.






- Altitude de l'aérodrome : 52 ft
- Code IATA : IOM


EGNS - Isle of Man

DERNIER METAR :
  • 190620Z VRB03KT 9999 FEW018 09/08 Q0996 NOSIG

METARs EXPIRÉS :
  • 190550Z 36004KT 9999 FEW018 09/08 Q0995 NOSIG
  • 190520Z 32004KT 280V340 9999 FEW018 09/08 Q0995
  • 190450Z 35006KT 9999 FEW018 BKN040 09/08 Q0995 NOSIG
  • 190420Z 34008KT 9999 FEW018 BKN045 09/07 Q0995 NOSIG
  • 190350Z 34006KT 290V010 9999 SCT018 BKN045 10/07 Q0995
  • 190250Z 34005KT 9999 FEW018 08/07 Q0995

TAF TAF EGNS
Valide du 19 à 06h jusqu'au 19 à 15h UTC


190500Z 1906/1915 35010KT 9999 FEW018 BKN050
PROB40
TEMPO 1906/1915 8000 -SHRA SCT015 BKN030



MET'MAP, la Météo Aéronautique d'un coup d'oeil ! - Copyright ORBIFLY Décembre 2007 - Disclaimer

ORBIFLY MET'MAP TEAM :

Programmation & Développement : Alexandra Zaïnal
Conception & Développement : Baudouin d'Aumeries
Co-Programmation & Développement : Marc-Olivier Méhu
Soutien technique & logistique : Manuel Goepfert

Contact : metmap@orbifly.com




SOURCES & CREDITS :

   NOAA